Pacolet, SC (29372)

7:13 AM EST on December 06, 2016 (GMT -0500)
Eastside | | Change Station

Elev 692 ft 34.94 °N, 81.86 °W | Updated 12 minutes ago

Rain
Rain
48.5 °F
Feels Like 48 °F
N
3.0
Wind Variable Wind from North
Gusts 3.0 mph

Today
High -- | Low -- °F
--% Chance of Precip.
Yesterday
High -- | Low -- °F
Precip. -- in
Pressure 29.86 in
Visibility 7.0 miles
Clouds Overcast 500 ft
Windchill 48 °F
Dew Point 48 °F
Humidity 97%
Rainfall 0.17 in
Snow Depth Not available.
7:21 AM 5:15 PM
Waxing Crescent, 41% visible
METAR KSPA 061215Z AUTO 05003KT 7SM RA OVC005 08/07 A2986 RMK AO2
Pressure 29.86 in
Visibility 7.0 miles
Clouds Overcast 500 ft
Windchill 48 °F
Dew Point 48 °F
Humidity 97%
Rainfall 0.17 in
Snow Depth Not available.
7:21 AM 5:15 PM
Waxing Crescent, 41% visible
METAR KSPA 061215Z AUTO 05003KT 7SM RA OVC005 08/07 A2986 RMK AO2

10-Day Weather Forecast

Almanac

Astronomy

Dec. 06, 2016 Rise Set
Actual Time
Civil Twilight
Nautical Twilight
Astronomical Twilight
Moon
Length of Visible Light
Length of Day
Tomorrow will be .
, % of the Moon is Illuminated

Today's Extremes

State Highs State Lows

Community

WunderPhotos

Upload Photos

1,955,936 photos uploaded!

WunderBlog® & News

Nearby

Air Quality

  Air Quality AQ Index Pollutant
Not available.

Snow Depth

Station Depth Elevation

Earthquake Activity

City Distance Mag. Time & Date
Minimum magnitude displayed is 2.5.

Coastal Water Temperatures

Place Temperature

Stations

Nearby Weather Stations

Station Location Temp. Windchill Dew Point Humidity Wind Precip. Elev Updated Type
                   

Watches & Warnings

There are currently no watches in effect.